sensor_id;sensor_type;location;lat;lon;timestamp;P1;durP1;ratioP1;P2;durP2;ratioP2
44228;SDS011;29904;51.058;5.378;2023-03-14T00:00:36;4.10;;;0.80;;
44228;SDS011;29904;51.058;5.378;2023-03-14T00:03:02;5.65;;;1.08;;
44228;SDS011;29904;51.058;5.378;2023-03-14T00:05:28;5.13;;;0.80;;
44228;SDS011;29904;51.058;5.378;2023-03-14T00:07:54;4.05;;;0.80;;
44228;SDS011;29904;51.058;5.378;2023-03-14T00:10:19;2.80;;;0.50;;
44228;SDS011;29904;51.058;5.378;2023-03-14T00:12:45;2.85;;;0.80;;
44228;SDS011;29904;51.058;5.378;2023-03-14T00:15:11;3.40;;;0.80;;
44228;SDS011;29904;51.058;5.378;2023-03-14T00:17:37;4.45;;;0.77;;
44228;SDS011;29904;51.058;5.378;2023-03-14T00:20:04;3.90;;;0.73;;
44228;SDS011;29904;51.058;5.378;2023-03-14T00:22:36;3.63;;;0.80;;
44228;SDS011;29904;51.058;5.378;2023-03-14T00:25:03;3.92;;;0.60;;
44228;SDS011;29904;51.058;5.378;2023-03-14T00:27:30;3.83;;;0.60;;
44228;SDS011;29904;51.058;5.378;2023-03-14T00:29:56;3.90;;;0.80;;
44228;SDS011;29904;51.058;5.378;2023-03-14T00:32:21;3.00;;;0.70;;
44228;SDS011;29904;51.058;5.378;2023-03-14T00:34:47;5.07;;;0.90;;
44228;SDS011;29904;51.058;5.378;2023-03-14T00:37:13;5.07;;;0.80;;
44228;SDS011;29904;51.058;5.378;2023-03-14T00:39:39;5.05;;;0.70;;
44228;SDS011;29904;51.058;5.378;2023-03-14T00:42:05;3.23;;;0.60;;
44228;SDS011;29904;51.058;5.378;2023-03-14T00:44:30;4.33;;;0.60;;
44228;SDS011;29904;51.058;5.378;2023-03-14T00:46:57;3.67;;;0.65;;
44228;SDS011;29904;51.058;5.378;2023-03-14T00:49:22;3.80;;;0.90;;
44228;SDS011;29904;51.058;5.378;2023-03-14T00:51:48;4.83;;;0.73;;
44228;SDS011;29904;51.058;5.378;2023-03-14T00:54:14;4.27;;;0.90;;
44228;SDS011;29904;51.058;5.378;2023-03-14T00:56:40;3.87;;;0.73;;
44228;SDS011;29904;51.058;5.378;2023-03-14T00:59:06;5.00;;;1.00;;
44228;SDS011;29904;51.058;5.378;2023-03-14T01:01:31;4.47;;;1.00;;
44228;SDS011;29904;51.058;5.378;2023-03-14T01:03:57;3.88;;;0.65;;
44228;SDS011;29904;51.058;5.378;2023-03-14T01:06:26;4.65;;;0.70;;
44228;SDS011;29904;51.058;5.378;2023-03-14T01:08:54;3.20;;;0.77;;
44228;SDS011;29904;51.058;5.378;2023-03-14T01:11:25;4.57;;;0.70;;
44228;SDS011;29904;51.058;5.378;2023-03-14T01:13:53;3.85;;;0.60;;
44228;SDS011;29904;51.058;5.378;2023-03-14T01:16:20;3.90;;;0.60;;
44228;SDS011;29904;51.058;5.378;2023-03-14T01:18:47;5.03;;;0.80;;
44228;SDS011;29904;51.058;5.378;2023-03-14T01:21:17;6.47;;;1.00;;
44228;SDS011;29904;51.058;5.378;2023-03-14T01:23:48;4.30;;;0.90;;
44228;SDS011;29904;51.058;5.378;2023-03-14T01:26:16;3.90;;;0.68;;
44228;SDS011;29904;51.058;5.378;2023-03-14T01:28:47;4.00;;;0.80;;
44228;SDS011;29904;51.058;5.378;2023-03-14T01:31:14;4.57;;;1.07;;
44228;SDS011;29904;51.058;5.378;2023-03-14T01:33:40;3.27;;;0.90;;
44228;SDS011;29904;51.058;5.378;2023-03-14T01:36:06;5.80;;;0.93;;
44228;SDS011;29904;51.058;5.378;2023-03-14T01:38:33;5.97;;;0.73;;
44228;SDS011;29904;51.058;5.378;2023-03-14T01:41:00;4.80;;;0.85;;
44228;SDS011;29904;51.058;5.378;2023-03-14T01:43:26;5.55;;;1.05;;
44228;SDS011;29904;51.058;5.378;2023-03-14T01:48:31;5.27;;;0.80;;
44228;SDS011;29904;51.058;5.378;2023-03-14T01:51:04;5.07;;;0.83;;
44228;SDS011;29904;51.058;5.378;2023-03-14T01:53:34;6.20;;;0.80;;
44228;SDS011;29904;51.058;5.378;2023-03-14T01:56:01;5.43;;;1.05;;
44228;SDS011;29904;51.058;5.378;2023-03-14T01:58:28;7.43;;;0.90;;
44228;SDS011;29904;51.058;5.378;2023-03-14T02:00:59;5.90;;;1.02;;
44228;SDS011;29904;51.058;5.378;2023-03-14T02:03:27;5.13;;;1.08;;
44228;SDS011;29904;51.058;5.378;2023-03-14T02:05:56;7.40;;;1.10;;
44228;SDS011;29904;51.058;5.378;2023-03-14T02:08:24;5.15;;;0.80;;
44228;SDS011;29904;51.058;5.378;2023-03-14T02:10:52;6.93;;;1.00;;
44228;SDS011;29904;51.058;5.378;2023-03-14T02:13:18;5.47;;;0.95;;
44228;SDS011;29904;51.058;5.378;2023-03-14T02:15:46;5.57;;;0.90;;
44228;SDS011;29904;51.058;5.378;2023-03-14T02:18:12;4.95;;;1.00;;
44228;SDS011;29904;51.058;5.378;2023-03-14T02:20:56;4.90;;;0.95;;
44228;SDS011;29904;51.058;5.378;2023-03-14T02:23:46;6.23;;;0.93;;
44228;SDS011;29904;51.058;5.378;2023-03-14T02:26:34;4.32;;;1.00;;
44228;SDS011;29904;51.058;5.378;2023-03-14T02:29:04;5.82;;;1.08;;
44228;SDS011;29904;51.058;5.378;2023-03-14T02:31:30;5.10;;;0.90;;
44228;SDS011;29904;51.058;5.378;2023-03-14T02:33:56;5.85;;;0.88;;
44228;SDS011;29904;51.058;5.378;2023-03-14T02:36:23;7.90;;;1.30;;
44228;SDS011;29904;51.058;5.378;2023-03-14T02:38:58;5.60;;;0.90;;
44228;SDS011;29904;51.058;5.378;2023-03-14T02:41:32;7.85;;;1.10;;
44228;SDS011;29904;51.058;5.378;2023-03-14T02:43:57;3.58;;;0.93;;
44228;SDS011;29904;51.058;5.378;2023-03-14T02:46:23;4.40;;;1.00;;
44228;SDS011;29904;51.058;5.378;2023-03-14T02:51:44;5.95;;;0.90;;
44228;SDS011;29904;51.058;5.378;2023-03-14T02:54:11;3.80;;;0.75;;
44228;SDS011;29904;51.058;5.378;2023-03-14T02:56:37;5.55;;;0.90;;
44228;SDS011;29904;51.058;5.378;2023-03-14T02:59:04;5.22;;;0.82;;
44228;SDS011;29904;51.058;5.378;2023-03-14T03:01:30;4.38;;;0.70;;
44228;SDS011;29904;51.058;5.378;2023-03-14T03:03:56;6.32;;;0.90;;
44228;SDS011;29904;51.058;5.378;2023-03-14T03:06:21;7.05;;;0.90;;
44228;SDS011;29904;51.058;5.378;2023-03-14T03:08:47;4.35;;;0.85;;
44228;SDS011;29904;51.058;5.378;2023-03-14T03:11:13;5.25;;;0.80;;
44228;SDS011;29904;51.058;5.378;2023-03-14T03:13:39;4.80;;;0.80;;
44228;SDS011;29904;51.058;5.378;2023-03-14T03:16:05;5.60;;;1.10;;
44228;SDS011;29904;51.058;5.378;2023-03-14T03:18:30;3.45;;;0.70;;
44228;SDS011;29904;51.058;5.378;2023-03-14T03:20:59;6.00;;;0.88;;
44228;SDS011;29904;51.058;5.378;2023-03-14T03:23:26;4.18;;;0.73;;
44228;SDS011;29904;51.058;5.378;2023-03-14T03:25:52;5.93;;;0.85;;
44228;SDS011;29904;51.058;5.378;2023-03-14T03:28:18;3.40;;;0.70;;
44228;SDS011;29904;51.058;5.378;2023-03-14T03:30:45;5.25;;;0.63;;
44228;SDS011;29904;51.058;5.378;2023-03-14T03:33:11;3.25;;;0.80;;
44228;SDS011;29904;51.058;5.378;2023-03-14T03:35:44;2.92;;;0.50;;
44228;SDS011;29904;51.058;5.378;2023-03-14T03:38:11;4.47;;;0.70;;
44228;SDS011;29904;51.058;5.378;2023-03-14T03:40:37;5.20;;;0.70;;
44228;SDS011;29904;51.058;5.378;2023-03-14T03:43:03;2.97;;;0.50;;
44228;SDS011;29904;51.058;5.378;2023-03-14T03:45:29;3.47;;;0.53;;
44228;SDS011;29904;51.058;5.378;2023-03-14T03:47:55;2.50;;;0.55;;
44228;SDS011;29904;51.058;5.378;2023-03-14T03:50:21;5.60;;;0.70;;
44228;SDS011;29904;51.058;5.378;2023-03-14T03:52:47;4.15;;;0.50;;
44228;SDS011;29904;51.058;5.378;2023-03-14T03:55:12;3.20;;;0.70;;
44228;SDS011;29904;51.058;5.378;2023-03-14T03:57:38;2.03;;;0.60;;
44228;SDS011;29904;51.058;5.378;2023-03-14T04:00:04;3.93;;;0.77;;
44228;SDS011;29904;51.058;5.378;2023-03-14T04:02:31;4.72;;;0.60;;
44228;SDS011;29904;51.058;5.378;2023-03-14T04:04:57;3.90;;;0.80;;
44228;SDS011;29904;51.058;5.378;2023-03-14T04:07:22;3.20;;;0.82;;
44228;SDS011;29904;51.058;5.378;2023-03-14T04:09:48;4.60;;;0.90;;
44228;SDS011;29904;51.058;5.378;2023-03-14T04:12:14;4.60;;;0.90;;
44228;SDS011;29904;51.058;5.378;2023-03-14T04:14:39;5.38;;;0.90;;
44228;SDS011;29904;51.058;5.378;2023-03-14T04:17:06;7.72;;;1.10;;
44228;SDS011;29904;51.058;5.378;2023-03-14T04:19:32;5.80;;;0.90;;
44228;SDS011;29904;51.058;5.378;2023-03-14T04:21:58;4.60;;;1.10;;
44228;SDS011;29904;51.058;5.378;2023-03-14T04:24:23;6.20;;;1.23;;
44228;SDS011;29904;51.058;5.378;2023-03-14T04:26:49;7.30;;;0.97;;
44228;SDS011;29904;51.058;5.378;2023-03-14T04:29:15;6.40;;;1.10;;
44228;SDS011;29904;51.058;5.378;2023-03-14T04:31:40;5.93;;;1.25;;
44228;SDS011;29904;51.058;5.378;2023-03-14T04:34:06;5.65;;;1.10;;
44228;SDS011;29904;51.058;5.378;2023-03-14T04:36:32;6.28;;;1.40;;
44228;SDS011;29904;51.058;5.378;2023-03-14T04:38:58;5.07;;;1.17;;
44228;SDS011;29904;51.058;5.378;2023-03-14T04:41:23;6.53;;;0.90;;
44228;SDS011;29904;51.058;5.378;2023-03-14T04:43:49;3.83;;;0.98;;
44228;SDS011;29904;51.058;5.378;2023-03-14T04:46:15;5.32;;;1.00;;
44228;SDS011;29904;51.058;5.378;2023-03-14T04:48:41;4.60;;;0.88;;
44228;SDS011;29904;51.058;5.378;2023-03-14T04:51:07;4.68;;;1.00;;
44228;SDS011;29904;51.058;5.378;2023-03-14T04:53:32;5.00;;;0.95;;
44228;SDS011;29904;51.058;5.378;2023-03-14T04:55:59;6.37;;;0.90;;
44228;SDS011;29904;51.058;5.378;2023-03-14T04:58:25;5.37;;;0.93;;
44228;SDS011;29904;51.058;5.378;2023-03-14T05:00:51;3.13;;;1.07;;
44228;SDS011;29904;51.058;5.378;2023-03-14T05:03:17;5.97;;;1.00;;
44228;SDS011;29904;51.058;5.378;2023-03-14T05:05:43;3.10;;;0.80;;
44228;SDS011;29904;51.058;5.378;2023-03-14T05:08:09;4.18;;;0.75;;
44228;SDS011;29904;51.058;5.378;2023-03-14T05:10:36;3.67;;;0.82;;
44228;SDS011;29904;51.058;5.378;2023-03-14T05:13:05;2.10;;;0.60;;
44228;SDS011;29904;51.058;5.378;2023-03-14T05:15:30;3.60;;;0.80;;
44228;SDS011;29904;51.058;5.378;2023-03-14T05:17:56;2.80;;;0.80;;
44228;SDS011;29904;51.058;5.378;2023-03-14T05:20:22;3.17;;;0.70;;
44228;SDS011;29904;51.058;5.378;2023-03-14T05:22:48;3.27;;;0.80;;
44228;SDS011;29904;51.058;5.378;2023-03-14T05:25:13;3.40;;;0.80;;
44228;SDS011;29904;51.058;5.378;2023-03-14T05:27:39;2.83;;;0.85;;
44228;SDS011;29904;51.058;5.378;2023-03-14T05:30:05;3.42;;;0.80;;
44228;SDS011;29904;51.058;5.378;2023-03-14T05:32:31;3.30;;;0.87;;
44228;SDS011;29904;51.058;5.378;2023-03-14T05:34:57;3.17;;;0.70;;
44228;SDS011;29904;51.058;5.378;2023-03-14T05:37:24;2.72;;;0.88;;
44228;SDS011;29904;51.058;5.378;2023-03-14T05:39:51;2.83;;;0.68;;
44228;SDS011;29904;51.058;5.378;2023-03-14T05:42:16;2.80;;;0.80;;
44228;SDS011;29904;51.058;5.378;2023-03-14T05:44:42;2.45;;;1.00;;
44228;SDS011;29904;51.058;5.378;2023-03-14T05:47:08;2.63;;;0.80;;
44228;SDS011;29904;51.058;5.378;2023-03-14T05:49:34;2.30;;;0.88;;
44228;SDS011;29904;51.058;5.378;2023-03-14T05:52:00;2.80;;;0.80;;
44228;SDS011;29904;51.058;5.378;2023-03-14T05:54:25;2.63;;;0.90;;
44228;SDS011;29904;51.058;5.378;2023-03-14T05:56:51;1.70;;;0.90;;
44228;SDS011;29904;51.058;5.378;2023-03-14T05:59:17;1.97;;;0.93;;
44228;SDS011;29904;51.058;5.378;2023-03-14T06:01:43;1.77;;;0.80;;
44228;SDS011;29904;51.058;5.378;2023-03-14T06:04:08;2.63;;;0.80;;
44228;SDS011;29904;51.058;5.378;2023-03-14T06:06:34;2.13;;;0.70;;
44228;SDS011;29904;51.058;5.378;2023-03-14T06:09:00;2.33;;;0.77;;
44228;SDS011;29904;51.058;5.378;2023-03-14T06:11:25;2.38;;;0.82;;
44228;SDS011;29904;51.058;5.378;2023-03-14T06:13:51;1.77;;;0.85;;
44228;SDS011;29904;51.058;5.378;2023-03-14T06:16:17;2.50;;;0.77;;
44228;SDS011;29904;51.058;5.378;2023-03-14T06:18:43;2.00;;;0.80;;
44228;SDS011;29904;51.058;5.378;2023-03-14T06:21:11;2.33;;;0.80;;
44228;SDS011;29904;51.058;5.378;2023-03-14T06:23:37;2.20;;;0.88;;
44228;SDS011;29904;51.058;5.378;2023-03-14T06:26:03;1.45;;;0.70;;
44228;SDS011;29904;51.058;5.378;2023-03-14T06:28:29;2.17;;;0.90;;
44228;SDS011;29904;51.058;5.378;2023-03-14T06:30:55;1.70;;;0.70;;
44228;SDS011;29904;51.058;5.378;2023-03-14T06:33:21;2.63;;;1.00;;
44228;SDS011;29904;51.058;5.378;2023-03-14T06:35:47;1.50;;;0.95;;
44228;SDS011;29904;51.058;5.378;2023-03-14T06:38:12;2.97;;;1.08;;
44228;SDS011;29904;51.058;5.378;2023-03-14T06:40:38;2.63;;;1.10;;
44228;SDS011;29904;51.058;5.378;2023-03-14T06:43:04;3.30;;;1.33;;
44228;SDS011;29904;51.058;5.378;2023-03-14T06:45:30;2.60;;;1.02;;
44228;SDS011;29904;51.058;5.378;2023-03-14T06:47:55;2.87;;;1.07;;
44228;SDS011;29904;51.058;5.378;2023-03-14T06:50:21;3.10;;;1.10;;
44228;SDS011;29904;51.058;5.378;2023-03-14T06:52:47;3.00;;;1.33;;
44228;SDS011;29904;51.058;5.378;2023-03-14T06:55:14;2.45;;;1.27;;
44228;SDS011;29904;51.058;5.378;2023-03-14T06:57:40;4.78;;;1.35;;
44228;SDS011;29904;51.058;5.378;2023-03-14T07:00:06;2.53;;;1.20;;
44228;SDS011;29904;51.058;5.378;2023-03-14T07:02:33;2.00;;;1.20;;
44228;SDS011;29904;51.058;5.378;2023-03-14T07:04:58;1.83;;;1.00;;
44228;SDS011;29904;51.058;5.378;2023-03-14T07:07:25;2.88;;;1.27;;
44228;SDS011;29904;51.058;5.378;2023-03-14T07:09:51;1.92;;;0.95;;
44228;SDS011;29904;51.058;5.378;2023-03-14T07:12:17;3.53;;;1.00;;
44228;SDS011;29904;51.058;5.378;2023-03-14T07:14:43;2.57;;;0.77;;
44228;SDS011;29904;51.058;5.378;2023-03-14T07:17:09;3.90;;;1.00;;
44228;SDS011;29904;51.058;5.378;2023-03-14T07:19:34;2.25;;;1.00;;
44228;SDS011;29904;51.058;5.378;2023-03-14T07:22:00;1.70;;;1.20;;
44228;SDS011;29904;51.058;5.378;2023-03-14T07:24:26;3.55;;;1.20;;
44228;SDS011;29904;51.058;5.378;2023-03-14T07:26:52;3.50;;;1.10;;
44228;SDS011;29904;51.058;5.378;2023-03-14T07:29:17;1.80;;;1.15;;
44228;SDS011;29904;51.058;5.378;2023-03-14T07:31:43;1.53;;;1.10;;
44228;SDS011;29904;51.058;5.378;2023-03-14T07:34:09;2.67;;;1.10;;
44228;SDS011;29904;51.058;5.378;2023-03-14T07:36:34;2.67;;;0.87;;
44228;SDS011;29904;51.058;5.378;2023-03-14T07:39:00;2.58;;;1.02;;
44228;SDS011;29904;51.058;5.378;2023-03-14T07:41:26;2.05;;;1.00;;
44228;SDS011;29904;51.058;5.378;2023-03-14T07:43:52;2.20;;;1.45;;
44228;SDS011;29904;51.058;5.378;2023-03-14T07:46:18;2.15;;;1.20;;
44228;SDS011;29904;51.058;5.378;2023-03-14T07:48:43;1.60;;;1.00;;
44228;SDS011;29904;51.058;5.378;2023-03-14T07:51:09;3.13;;;1.00;;
44228;SDS011;29904;51.058;5.378;2023-03-14T07:53:35;1.63;;;0.60;;
44228;SDS011;29904;51.058;5.378;2023-03-14T07:56:00;0.90;;;0.50;;
44228;SDS011;29904;51.058;5.378;2023-03-14T07:58:26;1.17;;;0.37;;
44228;SDS011;29904;51.058;5.378;2023-03-14T08:00:52;1.80;;;0.40;;
44228;SDS011;29904;51.058;5.378;2023-03-14T08:03:18;1.60;;;0.30;;
44228;SDS011;29904;51.058;5.378;2023-03-14T08:05:45;1.10;;;0.40;;
44228;SDS011;29904;51.058;5.378;2023-03-14T08:08:13;1.60;;;0.47;;
44228;SDS011;29904;51.058;5.378;2023-03-14T08:10:39;0.60;;;0.20;;
44228;SDS011;29904;51.058;5.378;2023-03-14T08:13:04;0.63;;;0.30;;
44228;SDS011;29904;51.058;5.378;2023-03-14T08:15:30;1.80;;;0.25;;
44228;SDS011;29904;51.058;5.378;2023-03-14T08:17:56;1.55;;;0.20;;
44228;SDS011;29904;51.058;5.378;2023-03-14T08:20:24;1.30;;;0.35;;
44228;SDS011;29904;51.058;5.378;2023-03-14T08:22:52;0.45;;;0.30;;
44228;SDS011;29904;51.058;5.378;2023-03-14T08:25:20;0.70;;;0.20;;
44228;SDS011;29904;51.058;5.378;2023-03-14T08:27:45;0.90;;;0.30;;
44228;SDS011;29904;51.058;5.378;2023-03-14T08:30:12;1.60;;;0.40;;
44228;SDS011;29904;51.058;5.378;2023-03-14T08:32:42;2.08;;;0.50;;
44228;SDS011;29904;51.058;5.378;2023-03-14T08:35:08;0.80;;;0.30;;
44228;SDS011;29904;51.058;5.378;2023-03-14T08:37:35;1.10;;;0.40;;
44228;SDS011;29904;51.058;5.378;2023-03-14T08:40:01;0.90;;;0.30;;
44228;SDS011;29904;51.058;5.378;2023-03-14T08:42:35;1.45;;;0.30;;
44228;SDS011;29904;51.058;5.378;2023-03-14T08:45:01;1.08;;;0.20;;
44228;SDS011;29904;51.058;5.378;2023-03-14T08:47:28;1.10;;;0.30;;
44228;SDS011;29904;51.058;5.378;2023-03-14T08:49:54;1.30;;;0.30;;
44228;SDS011;29904;51.058;5.378;2023-03-14T08:52:20;1.17;;;0.30;;
44228;SDS011;29904;51.058;5.378;2023-03-14T08:54:46;2.40;;;0.50;;
44228;SDS011;29904;51.058;5.378;2023-03-14T08:57:11;1.40;;;0.40;;
44228;SDS011;29904;51.058;5.378;2023-03-14T08:59:37;1.08;;;0.30;;
44228;SDS011;29904;51.058;5.378;2023-03-14T09:02:03;1.25;;;0.30;;
44228;SDS011;29904;51.058;5.378;2023-03-14T09:04:31;2.75;;;0.40;;
44228;SDS011;29904;51.058;5.378;2023-03-14T09:06:58;1.20;;;0.40;;
44228;SDS011;29904;51.058;5.378;2023-03-14T09:09:25;1.65;;;0.60;;
44228;SDS011;29904;51.058;5.378;2023-03-14T09:11:55;2.77;;;1.40;;
44228;SDS011;29904;51.058;5.378;2023-03-14T09:14:21;5.28;;;1.20;;
44228;SDS011;29904;51.058;5.378;2023-03-14T09:16:47;2.47;;;0.98;;
44228;SDS011;29904;51.058;5.378;2023-03-14T09:19:13;2.67;;;0.90;;
44228;SDS011;29904;51.058;5.378;2023-03-14T09:21:38;2.77;;;1.10;;
44228;SDS011;29904;51.058;5.378;2023-03-14T09:24:04;4.37;;;1.30;;
44228;SDS011;29904;51.058;5.378;2023-03-14T09:26:30;2.00;;;1.27;;
44228;SDS011;29904;51.058;5.378;2023-03-14T09:28:56;3.35;;;1.15;;
44228;SDS011;29904;51.058;5.378;2023-03-14T09:31:22;3.00;;;1.42;;
44228;SDS011;29904;51.058;5.378;2023-03-14T09:33:48;2.42;;;1.10;;
44228;SDS011;29904;51.058;5.378;2023-03-14T09:36:13;2.38;;;0.77;;
44228;SDS011;29904;51.058;5.378;2023-03-14T09:38:39;3.15;;;1.52;;
44228;SDS011;29904;51.058;5.378;2023-03-14T09:41:13;3.95;;;1.52;;
44228;SDS011;29904;51.058;5.378;2023-03-14T09:43:39;4.70;;;1.10;;
44228;SDS011;29904;51.058;5.378;2023-03-14T09:46:07;4.38;;;1.58;;
44228;SDS011;29904;51.058;5.378;2023-03-14T09:48:35;2.60;;;1.10;;
44228;SDS011;29904;51.058;5.378;2023-03-14T09:51:03;2.80;;;1.30;;
44228;SDS011;29904;51.058;5.378;2023-03-14T09:53:43;3.67;;;2.20;;
44228;SDS011;29904;51.058;5.378;2023-03-14T09:56:20;2.70;;;1.50;;
44228;SDS011;29904;51.058;5.378;2023-03-14T09:58:55;3.55;;;1.20;;
44228;SDS011;29904;51.058;5.378;2023-03-14T10:01:30;3.42;;;0.90;;
44228;SDS011;29904;51.058;5.378;2023-03-14T10:03:58;2.80;;;0.60;;
44228;SDS011;29904;51.058;5.378;2023-03-14T10:06:28;2.30;;;0.70;;
44228;SDS011;29904;51.058;5.378;2023-03-14T10:08:55;2.63;;;0.60;;
44228;SDS011;29904;51.058;5.378;2023-03-14T10:11:24;2.67;;;0.60;;
44228;SDS011;29904;51.058;5.378;2023-03-14T10:14:03;3.50;;;0.80;;
44228;SDS011;29904;51.058;5.378;2023-03-14T10:16:42;1.90;;;0.57;;
44228;SDS011;29904;51.058;5.378;2023-03-14T10:19:10;3.10;;;0.70;;
44228;SDS011;29904;51.058;5.378;2023-03-14T10:21:42;2.70;;;0.75;;
44228;SDS011;29904;51.058;5.378;2023-03-14T10:26:43;2.92;;;1.00;;
44228;SDS011;29904;51.058;5.378;2023-03-14T10:29:14;3.45;;;0.93;;
44228;SDS011;29904;51.058;5.378;2023-03-14T10:31:47;2.88;;;1.10;;
44228;SDS011;29904;51.058;5.378;2023-03-14T10:34:17;1.70;;;0.60;;
44228;SDS011;29904;51.058;5.378;2023-03-14T10:36:58;4.40;;;0.90;;
44228;SDS011;29904;51.058;5.378;2023-03-14T10:39:33;2.95;;;0.93;;
44228;SDS011;29904;51.058;5.378;2023-03-14T10:42:05;3.83;;;0.63;;
44228;SDS011;29904;51.058;5.378;2023-03-14T10:44:39;2.97;;;0.70;;
44228;SDS011;29904;51.058;5.378;2023-03-14T10:47:06;1.13;;;0.63;;
44228;SDS011;29904;51.058;5.378;2023-03-14T10:49:40;2.85;;;0.70;;
44228;SDS011;29904;51.058;5.378;2023-03-14T10:54:39;2.40;;;0.80;;
44228;SDS011;29904;51.058;5.378;2023-03-14T10:57:05;2.17;;;0.80;;
44228;SDS011;29904;51.058;5.378;2023-03-14T10:59:35;2.67;;;0.80;;
44228;SDS011;29904;51.058;5.378;2023-03-14T11:05:01;2.20;;;1.10;;
44228;SDS011;29904;51.058;5.378;2023-03-14T11:07:40;2.80;;;1.10;;
44228;SDS011;29904;51.058;5.378;2023-03-14T11:10:26;3.33;;;1.25;;
44228;SDS011;29904;51.058;5.378;2023-03-14T11:21:13;2.73;;;1.00;;
44228;SDS011;29904;51.058;5.378;2023-03-14T11:29:21;2.38;;;0.80;;
44228;SDS011;29904;51.058;5.378;2023-03-14T11:31:54;4.07;;;0.70;;
44228;SDS011;29904;51.058;5.378;2023-03-14T11:34:29;3.60;;;0.75;;
44228;SDS011;29904;51.058;5.378;2023-03-14T11:42:42;3.35;;;0.77;;
44228;SDS011;29904;51.058;5.378;2023-03-14T11:45:18;3.65;;;0.65;;
44228;SDS011;29904;51.058;5.378;2023-03-14T11:48:05;3.70;;;0.80;;
44228;SDS011;29904;51.058;5.378;2023-03-14T11:50:42;4.50;;;0.80;;
44228;SDS011;29904;51.058;5.378;2023-03-14T11:53:11;4.80;;;0.97;;
44228;SDS011;29904;51.058;5.378;2023-03-14T11:55:43;3.47;;;0.73;;
44228;SDS011;29904;51.058;5.378;2023-03-14T12:01:16;3.63;;;0.75;;
44228;SDS011;29904;51.058;5.378;2023-03-14T12:03:49;3.70;;;0.90;;
44228;SDS011;29904;51.058;5.378;2023-03-14T12:06:33;3.80;;;0.68;;
44228;SDS011;29904;51.058;5.378;2023-03-14T12:09:05;2.70;;;0.70;;
44228;SDS011;29904;51.058;5.378;2023-03-14T12:11:47;3.00;;;0.70;;
44228;SDS011;29904;51.058;5.378;2023-03-14T12:16:47;5.50;;;0.93;;
44228;SDS011;29904;51.058;5.378;2023-03-14T12:21:57;4.47;;;1.00;;
44228;SDS011;29904;51.058;5.378;2023-03-14T12:24:44;5.97;;;0.98;;
44228;SDS011;29904;51.058;5.378;2023-03-14T12:27:37;5.55;;;1.17;;
44228;SDS011;29904;51.058;5.378;2023-03-14T12:30:10;5.57;;;1.20;;
44228;SDS011;29904;51.058;5.378;2023-03-14T12:33:08;7.68;;;1.27;;
44228;SDS011;29904;51.058;5.378;2023-03-14T12:38:09;10.47;;;1.63;;
44228;SDS011;29904;51.058;5.378;2023-03-14T12:43:36;12.65;;;1.70;;
44228;SDS011;29904;51.058;5.378;2023-03-14T12:46:14;11.27;;;2.00;;
44228;SDS011;29904;51.058;5.378;2023-03-14T12:48:41;9.90;;;1.70;;
44228;SDS011;29904;51.058;5.378;2023-03-14T12:51:14;9.70;;;1.80;;
44228;SDS011;29904;51.058;5.378;2023-03-14T12:56:18;9.68;;;1.98;;
44228;SDS011;29904;51.058;5.378;2023-03-14T13:01:36;14.18;;;2.30;;
44228;SDS011;29904;51.058;5.378;2023-03-14T13:04:18;12.90;;;1.90;;
44228;SDS011;29904;51.058;5.378;2023-03-14T13:06:54;16.58;;;2.30;;
44228;SDS011;29904;51.058;5.378;2023-03-14T13:12:16;15.07;;;2.47;;
44228;SDS011;29904;51.058;5.378;2023-03-14T13:14:44;14.70;;;2.13;;
44228;SDS011;29904;51.058;5.378;2023-03-14T13:17:14;11.93;;;1.95;;
44228;SDS011;29904;51.058;5.378;2023-03-14T13:19:48;9.77;;;1.88;;
44228;SDS011;29904;51.058;5.378;2023-03-14T13:22:26;12.80;;;2.35;;
44228;SDS011;29904;51.058;5.378;2023-03-14T13:25:00;13.17;;;2.53;;
44228;SDS011;29904;51.058;5.378;2023-03-14T13:27:30;12.07;;;2.00;;
44228;SDS011;29904;51.058;5.378;2023-03-14T13:29:57;12.00;;;2.00;;
44228;SDS011;29904;51.058;5.378;2023-03-14T13:32:26;10.18;;;1.60;;
44228;SDS011;29904;51.058;5.378;2023-03-14T13:34:57;12.52;;;1.90;;
44228;SDS011;29904;51.058;5.378;2023-03-14T13:37:24;9.95;;;1.80;;
44228;SDS011;29904;51.058;5.378;2023-03-14T13:39:51;12.35;;;1.88;;
44228;SDS011;29904;51.058;5.378;2023-03-14T13:42:20;7.60;;;1.50;;
44228;SDS011;29904;51.058;5.378;2023-03-14T13:44:51;10.95;;;1.80;;
44228;SDS011;29904;51.058;5.378;2023-03-14T13:47:19;9.00;;;1.63;;
44228;SDS011;29904;51.058;5.378;2023-03-14T13:49:46;9.07;;;1.60;;
44228;SDS011;29904;51.058;5.378;2023-03-14T13:52:22;12.52;;;1.80;;
44228;SDS011;29904;51.058;5.378;2023-03-14T13:54:53;10.70;;;1.48;;
44228;SDS011;29904;51.058;5.378;2023-03-14T13:57:20;8.93;;;1.67;;
44228;SDS011;29904;51.058;5.378;2023-03-14T13:59:57;9.13;;;1.63;;
44228;SDS011;29904;51.058;5.378;2023-03-14T14:02:25;13.52;;;1.83;;
44228;SDS011;29904;51.058;5.378;2023-03-14T14:04:52;10.60;;;1.65;;
44228;SDS011;29904;51.058;5.378;2023-03-14T14:07:18;11.50;;;1.57;;
44228;SDS011;29904;51.058;5.378;2023-03-14T14:09:47;8.80;;;1.47;;
44228;SDS011;29904;51.058;5.378;2023-03-14T14:12:16;12.60;;;1.98;;
44228;SDS011;29904;51.058;5.378;2023-03-14T14:14:57;7.57;;;1.25;;
44228;SDS011;29904;51.058;5.378;2023-03-14T14:20:05;6.72;;;1.20;;
44228;SDS011;29904;51.058;5.378;2023-03-14T14:22:38;6.57;;;1.30;;
44228;SDS011;29904;51.058;5.378;2023-03-14T14:25:04;6.18;;;1.00;;
44228;SDS011;29904;51.058;5.378;2023-03-14T14:27:36;5.60;;;1.20;;
44228;SDS011;29904;51.058;5.378;2023-03-14T14:32:50;9.27;;;1.50;;
44228;SDS011;29904;51.058;5.378;2023-03-14T14:35:23;5.47;;;1.00;;
44228;SDS011;29904;51.058;5.378;2023-03-14T14:37:58;6.85;;;1.30;;
44228;SDS011;29904;51.058;5.378;2023-03-14T14:40:26;5.57;;;1.00;;
44228;SDS011;29904;51.058;5.378;2023-03-14T14:42:54;5.65;;;0.93;;
44228;SDS011;29904;51.058;5.378;2023-03-14T14:45:26;5.55;;;1.08;;
44228;SDS011;29904;51.058;5.378;2023-03-14T14:50:30;4.40;;;0.83;;
44228;SDS011;29904;51.058;5.378;2023-03-14T14:52:58;5.32;;;0.95;;
44228;SDS011;29904;51.058;5.378;2023-03-14T14:55:31;4.00;;;1.00;;
44228;SDS011;29904;51.058;5.378;2023-03-14T14:58:09;4.60;;;1.05;;
44228;SDS011;29904;51.058;5.378;2023-03-14T15:03:41;5.00;;;0.90;;
44228;SDS011;29904;51.058;5.378;2023-03-14T15:06:08;8.85;;;1.33;;
44228;SDS011;29904;51.058;5.378;2023-03-14T15:08:39;4.40;;;0.90;;
44228;SDS011;29904;51.058;5.378;2023-03-14T15:11:05;2.13;;;0.60;;
44228;SDS011;29904;51.058;5.378;2023-03-14T15:13:31;4.50;;;0.80;;
44228;SDS011;29904;51.058;5.378;2023-03-14T15:15:57;5.03;;;0.80;;
44228;SDS011;29904;51.058;5.378;2023-03-14T15:18:23;4.20;;;0.80;;
44228;SDS011;29904;51.058;5.378;2023-03-14T15:20:50;2.50;;;0.80;;
44228;SDS011;29904;51.058;5.378;2023-03-14T15:23:17;3.22;;;0.60;;
44228;SDS011;29904;51.058;5.378;2023-03-14T15:25:46;3.53;;;0.70;;
44228;SDS011;29904;51.058;5.378;2023-03-14T15:28:17;2.83;;;0.70;;
44228;SDS011;29904;51.058;5.378;2023-03-14T15:30:52;2.65;;;0.60;;
44228;SDS011;29904;51.058;5.378;2023-03-14T15:33:19;3.17;;;0.70;;
44228;SDS011;29904;51.058;5.378;2023-03-14T15:35:46;3.63;;;0.70;;
44228;SDS011;29904;51.058;5.378;2023-03-14T15:38:14;5.90;;;0.57;;
44228;SDS011;29904;51.058;5.378;2023-03-14T15:40:41;2.25;;;0.63;;
44228;SDS011;29904;51.058;5.378;2023-03-14T15:43:08;4.38;;;0.73;;
44228;SDS011;29904;51.058;5.378;2023-03-14T15:45:34;1.20;;;0.40;;
44228;SDS011;29904;51.058;5.378;2023-03-14T15:48:00;1.08;;;0.30;;
44228;SDS011;29904;51.058;5.378;2023-03-14T15:50:26;2.13;;;0.20;;
44228;SDS011;29904;51.058;5.378;2023-03-14T15:52:52;0.43;;;0.20;;
44228;SDS011;29904;51.058;5.378;2023-03-14T15:55:18;1.63;;;0.40;;
44228;SDS011;29904;51.058;5.378;2023-03-14T15:57:44;4.10;;;0.67;;
44228;SDS011;29904;51.058;5.378;2023-03-14T16:00:15;2.83;;;0.60;;